createdAt,value
2023-03-08T05:01:24.688Z,27.33
2023-03-08T05:03:53.733Z,27.34
2023-03-08T05:06:29.335Z,27.37
2023-03-08T05:08:57.466Z,27.38
2023-03-08T05:11:26.715Z,27.38
2023-03-08T05:13:55.244Z,27.35
2023-03-08T05:16:23.350Z,27.37
2023-03-08T05:18:51.157Z,27.28
2023-03-08T05:21:22.010Z,27.27
2023-03-08T05:23:53.155Z,27.39
2023-03-08T05:26:25.759Z,27.49
2023-03-08T05:28:52.588Z,27.09
2023-03-08T05:31:25.326Z,27.49
2023-03-08T05:33:55.668Z,27.32
2023-03-08T05:36:30.811Z,27.61
2023-03-08T05:38:58.472Z,27.73
2023-03-08T05:41:33.689Z,27.33
2023-03-08T05:44:02.355Z,27.32
2023-03-08T05:46:33.010Z,27.34
2023-03-08T05:49:02.113Z,27.18
2023-03-08T05:51:33.875Z,27.11
2023-03-08T05:54:01.284Z,27.30
2023-03-08T05:56:29.604Z,27.70
2023-03-08T05:59:05.466Z,27.27
2023-03-08T06:01:32.811Z,27.32
2023-03-08T06:04:12.621Z,27.24
2023-03-08T06:06:42.460Z,27.18
2023-03-08T06:09:09.562Z,27.13
2023-03-08T06:11:42.885Z,27.18
2023-03-08T06:14:12.175Z,27.52
2023-03-08T06:16:40.915Z,27.33
2023-03-08T06:19:08.093Z,27.36
2023-03-08T06:21:37.089Z,27.53
2023-03-08T06:24:05.863Z,27.31
2023-03-08T06:26:33.221Z,27.35
2023-03-08T06:29:01.018Z,27.59
2023-03-08T06:31:30.570Z,27.42
2023-03-08T06:33:58.026Z,27.44
2023-03-08T06:36:27.632Z,27.42
2023-03-08T06:38:54.709Z,27.31
2023-03-08T06:41:21.821Z,27.30
2023-03-08T06:43:53.198Z,27.24
2023-03-08T06:46:22.424Z,27.32
2023-03-08T06:48:49.296Z,27.26
2023-03-08T06:51:18.693Z,27.44
2023-03-08T06:53:46.531Z,27.24
2023-03-08T06:56:16.648Z,27.36
2023-03-08T06:58:44.803Z,27.41
2023-03-08T07:01:11.648Z,27.30
2023-03-08T07:03:38.496Z,27.27
2023-03-08T07:06:09.834Z,26.95
2023-03-08T07:08:37.086Z,27.32
2023-03-08T07:11:04.109Z,27.50
2023-03-08T07:13:30.961Z,27.25
2023-03-08T07:15:57.916Z,27.30
2023-03-08T07:18:24.727Z,27.33
2023-03-08T07:20:57.874Z,27.30
2023-03-08T07:23:25.847Z,27.16
2023-03-08T07:25:52.874Z,27.23
2023-03-08T07:28:22.207Z,27.28
2023-03-08T07:30:49.708Z,27.26
2023-03-08T07:33:17.533Z,27.09
2023-03-08T07:35:44.484Z,27.12
2023-03-08T07:38:14.192Z,27.37
2023-03-08T07:40:40.927Z,27.23
2023-03-08T07:43:07.725Z,27.29
2023-03-08T07:45:43.181Z,27.07
2023-03-08T07:48:10.396Z,27.11
2023-03-08T07:50:37.382Z,27.13
2023-03-08T07:53:04.708Z,27.20
2023-03-08T07:55:33.483Z,27.06
2023-03-08T07:58:00.808Z,27.08
2023-03-08T08:00:28.426Z,27.26
2023-03-08T08:02:55.577Z,27.42
2023-03-08T08:05:23.309Z,27.31
2023-03-08T08:07:50.627Z,27.21
2023-03-08T08:10:18.963Z,27.40
2023-03-08T08:12:46.406Z,27.15
2023-03-08T08:15:13.468Z,27.00
2023-03-08T08:17:40.248Z,27.15
2023-03-08T08:20:08.450Z,27.23
2023-03-08T08:22:36.539Z,27.35
2023-03-08T08:25:07.835Z,27.11
2023-03-08T08:27:43.768Z,27.09
2023-03-08T08:30:13.062Z,27.21
2023-03-08T08:32:41.026Z,26.82
2023-03-08T08:35:08.288Z,27.15
2023-03-08T08:37:35.747Z,27.25
2023-03-08T08:40:04.403Z,27.75
2023-03-08T08:42:31.110Z,28.90
2023-03-08T08:44:57.917Z,28.81
2023-03-08T08:47:24.744Z,28.06
2023-03-08T08:49:52.127Z,27.94
2023-03-08T08:52:19.251Z,27.50
2023-03-08T08:54:46.265Z,27.41
2023-03-08T08:57:13.060Z,27.35
2023-03-08T08:59:40.536Z,27.52
2023-03-08T09:02:07.456Z,27.47
2023-03-08T09:04:34.711Z,27.43
2023-03-08T09:07:02.054Z,27.23
2023-03-08T09:09:28.891Z,27.47
2023-03-08T09:11:56.223Z,27.70
2023-03-08T09:14:23.321Z,27.29
2023-03-08T09:16:50.447Z,27.44
2023-03-08T09:19:20.381Z,27.30
2023-03-08T09:21:47.187Z,27.57
2023-03-08T09:24:17.366Z,27.49
2023-03-08T09:26:44.085Z,26.97
2023-03-08T09:29:11.457Z,27.10
2023-03-08T09:31:38.503Z,27.48
2023-03-08T09:34:09.396Z,27.10
2023-03-08T09:36:37.258Z,27.12
2023-03-08T09:39:09.092Z,27.56
2023-03-08T09:41:59.501Z,27.53
2023-03-08T09:44:34.980Z,27.36
2023-03-08T09:47:06.414Z,27.58
2023-03-08T09:49:35.209Z,27.51
2023-03-08T09:52:43.372Z,27.36
2023-03-08T09:55:30.430Z,27.46
2023-03-08T09:58:04.217Z,26.72
2023-03-08T10:00:35.750Z,26.77
2023-03-08T10:03:25.035Z,26.57
2023-03-08T10:06:11.766Z,26.75
2023-03-08T10:08:45.848Z,26.52
2023-03-08T10:11:41.814Z,26.38
2023-03-08T10:14:19.812Z,26.49
2023-03-08T10:16:50.191Z,26.38
2023-03-08T10:19:33.089Z,26.55
2023-03-08T10:22:01.285Z,26.56
2023-03-08T10:24:31.582Z,26.64
2023-03-08T10:27:25.635Z,26.31
2023-03-08T10:29:53.980Z,26.65
2023-03-08T10:32:23.166Z,26.48
2023-03-08T10:34:51.740Z,26.35
2023-03-08T10:37:22.272Z,26.50
2023-03-08T10:39:54.932Z,26.26
2023-03-08T10:42:23.683Z,26.31
2023-03-08T10:45:01.968Z,26.59
2023-03-08T10:47:30.706Z,26.61
2023-03-08T10:50:18.417Z,26.70
2023-03-08T10:52:49.374Z,26.57
2023-03-08T10:55:18.272Z,26.73
2023-03-08T10:57:59.892Z,26.69
2023-03-08T11:00:26.822Z,26.53
2023-03-08T11:03:18.772Z,26.66
2023-03-08T11:06:15.176Z,26.67
2023-03-08T11:08:53.081Z,26.36
2023-03-08T11:11:19.912Z,26.64
2023-03-08T11:13:51.996Z,26.81
2023-03-08T11:16:37.874Z,26.76
2023-03-08T11:19:41.849Z,26.82
2023-03-08T11:22:33.072Z,26.81
2023-03-08T11:25:09.253Z,27.00
2023-03-08T11:28:02.526Z,26.86
2023-03-08T11:30:58.964Z,27.22
2023-03-08T11:33:35.184Z,27.25
2023-03-08T11:36:23.369Z,27.12
2023-03-08T11:39:17.443Z,27.37
2023-03-08T11:41:47.820Z,27.05
2023-03-08T11:44:21.690Z,26.93
2023-03-08T11:47:12.258Z,27.02
2023-03-08T11:50:06.334Z,27.21
2023-03-08T11:52:52.861Z,27.68
2023-03-08T11:55:44.880Z,29.63
2023-03-08T11:58:18.972Z,29.52
2023-03-08T12:00:47.090Z,28.74
2023-03-08T12:03:15.318Z,28.22
2023-03-08T12:05:52.148Z,27.93
2023-03-08T12:08:31.876Z,27.71
2023-03-08T12:11:23.712Z,27.60
2023-03-08T12:13:55.281Z,27.64
2023-03-08T12:16:26.364Z,27.26
2023-03-08T12:18:58.191Z,27.17
2023-03-08T12:21:40.501Z,27.28
2023-03-08T12:24:10.574Z,27.19
2023-03-08T12:26:49.116Z,27.07
2023-03-08T12:29:30.083Z,27.42
2023-03-08T12:31:57.745Z,27.42
2023-03-08T12:34:37.899Z,27.33
2023-03-08T12:37:05.014Z,27.49
2023-03-08T12:39:36.607Z,27.42
2023-03-08T12:42:16.425Z,27.55
2023-03-08T12:44:44.095Z,27.35
2023-03-08T12:47:14.655Z,27.45
2023-03-08T12:49:44.098Z,27.36
2023-03-08T12:52:21.800Z,27.28
2023-03-08T12:55:19.417Z,27.29
2023-03-08T12:57:57.954Z,27.35
2023-03-08T13:00:44.292Z,27.52
2023-03-08T13:03:14.637Z,27.47
2023-03-08T13:05:49.883Z,27.60
2023-03-08T13:08:16.906Z,27.28
2023-03-08T13:10:53.166Z,27.39
2023-03-08T13:13:39.171Z,27.46
2023-03-08T13:16:08.771Z,27.58
2023-03-08T13:18:37.191Z,27.53
2023-03-08T13:21:46.505Z,27.55
2023-03-08T13:24:38.299Z,27.65
2023-03-08T13:27:12.988Z,27.33
2023-03-08T13:29:42.019Z,27.50
2023-03-08T13:32:13.458Z,27.34
2023-03-08T13:34:42.005Z,27.61
2023-03-08T13:37:25.238Z,27.33
2023-03-08T13:39:56.230Z,27.38
2023-03-08T13:42:25.045Z,27.48
2023-03-08T13:44:53.896Z,27.44
2023-03-08T13:47:39.592Z,27.45
2023-03-08T13:50:06.648Z,27.60
2023-03-08T13:52:37.092Z,27.67
2023-03-08T13:55:06.298Z,27.80
2023-03-08T13:57:37.688Z,28.06
2023-03-08T14:00:31.583Z,27.96
2023-03-08T14:03:00.464Z,27.69
2023-03-08T14:05:29.088Z,28.03
2023-03-08T14:08:26.950Z,27.60
2023-03-08T14:11:05.445Z,27.62
2023-03-08T14:13:37.404Z,27.84
2023-03-08T14:16:07.197Z,28.03
2023-03-08T14:18:39.542Z,27.97
2023-03-08T14:21:17.698Z,28.18
2023-03-08T14:23:58.577Z,28.66
2023-03-08T14:26:29.526Z,28.55
2023-03-08T14:29:22.737Z,28.33
2023-03-08T14:32:05.691Z,28.40
2023-03-08T14:34:39.587Z,28.28
2023-03-08T14:37:12.869Z,28.49
2023-03-08T14:39:44.347Z,28.49
2023-03-08T14:42:49.077Z,28.34
2023-03-08T14:45:23.773Z,28.35
2023-03-08T14:47:58.714Z,28.33
2023-03-08T14:50:33.541Z,28.21
2023-03-08T14:53:01.732Z,28.34
2023-03-08T14:55:29.547Z,28.30
2023-03-08T14:58:04.361Z,28.16
2023-03-08T15:00:32.974Z,28.39
2023-03-08T15:03:00.474Z,28.25
2023-03-08T15:05:29.418Z,28.51
2023-03-08T15:07:57.575Z,28.22
2023-03-08T15:10:29.510Z,28.28
2023-03-08T15:12:56.664Z,28.39
2023-03-08T15:15:24.655Z,28.36
2023-03-08T15:17:52.103Z,28.33
2023-03-08T15:20:19.476Z,28.15
2023-03-08T15:22:53.531Z,28.19
2023-03-08T15:25:25.930Z,28.22
2023-03-08T15:27:52.902Z,28.38
2023-03-08T15:30:24.460Z,28.54
2023-03-08T15:32:51.524Z,27.99
2023-03-08T15:35:18.951Z,28.27
2023-03-08T15:37:45.929Z,28.34
2023-03-08T15:40:18.555Z,28.10
2023-03-08T15:42:45.700Z,27.87
2023-03-08T15:45:13.503Z,28.13
2023-03-08T15:47:41.990Z,27.95
2023-03-08T15:50:16.617Z,27.74
2023-03-08T15:52:45.022Z,28.28
2023-03-08T15:55:13.107Z,28.47
2023-03-08T15:57:40.792Z,28.41
2023-03-08T16:00:09.828Z,28.33
2023-03-08T16:02:37.896Z,28.66
2023-03-08T16:05:05.830Z,28.46
2023-03-08T16:07:36.035Z,28.25
2023-03-08T16:10:04.624Z,28.11
2023-03-08T16:12:31.670Z,28.34
2023-03-08T16:14:59.571Z,28.66
2023-03-08T16:17:29.447Z,28.59
2023-03-08T16:19:56.442Z,28.70
2023-03-08T16:22:23.335Z,28.92
2023-03-08T16:24:50.563Z,29.03
2023-03-08T16:27:17.540Z,29.11
2023-03-08T16:29:44.573Z,29.10
2023-03-08T16:32:15.456Z,29.67
2023-03-08T16:34:42.453Z,29.45
2023-03-08T16:37:09.852Z,29.41
2023-03-08T16:39:36.903Z,29.36
2023-03-08T16:42:04.273Z,29.53
2023-03-08T16:44:32.886Z,29.50
2023-03-08T16:46:59.924Z,29.43
2023-03-08T16:49:28.915Z,29.27
2023-03-08T16:51:56.847Z,29.04
2023-03-08T16:54:27.176Z,29.26
2023-03-08T16:56:54.644Z,28.98
2023-03-08T16:59:22.979Z,29.09
2023-03-08T17:01:50.448Z,29.18
2023-03-08T17:04:18.522Z,29.28
2023-03-08T17:06:45.711Z,29.44
2023-03-08T17:09:14.538Z,29.19
2023-03-08T17:11:42.460Z,29.14
2023-03-08T17:14:11.090Z,29.03
2023-03-08T17:16:40.275Z,29.03
2023-03-08T17:19:08.582Z,29.21
2023-03-08T17:21:40.973Z,29.55
2023-03-08T17:24:09.722Z,29.33
2023-03-08T17:26:37.022Z,29.18
2023-03-08T17:29:12.640Z,29.27
2023-03-08T17:31:41.042Z,30.30
2023-03-08T17:34:08.083Z,30.96
2023-03-08T17:36:35.109Z,31.25
2023-03-08T17:39:02.304Z,30.42
2023-03-08T17:41:29.330Z,30.24
2023-03-08T17:43:56.141Z,30.03
2023-03-08T17:46:24.103Z,29.77
2023-03-08T17:48:51.648Z,29.66
2023-03-08T17:51:20.342Z,29.28
2023-03-08T17:53:47.415Z,29.19
2023-03-08T17:56:22.495Z,29.21
2023-03-08T17:58:49.425Z,28.92
2023-03-08T18:01:18.207Z,29.10
2023-03-08T18:03:45.217Z,29.33
2023-03-08T18:06:29.380Z,29.12
2023-03-08T18:08:57.548Z,29.10
2023-03-08T18:11:26.953Z,29.12
2023-03-08T18:13:53.935Z,29.29
2023-03-08T18:16:21.752Z,29.23
2023-03-08T18:18:49.849Z,29.17
2023-03-08T18:21:20.983Z,29.35
2023-03-08T18:23:47.884Z,29.60
2023-03-08T18:26:16.062Z,29.53
2023-03-08T18:28:43.999Z,29.51
2023-03-08T18:31:13.671Z,29.60
2023-03-08T18:33:42.074Z,29.73
2023-03-08T18:36:09.152Z,29.63
2023-03-08T18:38:36.679Z,29.41
2023-03-08T18:41:27.850Z,29.57
2023-03-08T18:43:55.877Z,29.65
2023-03-08T18:47:31.221Z,29.25
2023-03-08T18:50:15.010Z,29.22
2023-03-08T18:52:52.321Z,29.43
2023-03-08T18:55:54.047Z,28.96
2023-03-08T18:58:24.439Z,29.30
2023-03-08T19:01:09.594Z,29.18
2023-03-08T19:03:39.292Z,28.99
2023-03-08T19:06:09.974Z,29.24
2023-03-08T19:08:40.699Z,29.00
2023-03-08T19:11:28.171Z,28.99
2023-03-08T19:13:57.825Z,28.98
2023-03-08T19:16:27.570Z,29.10
2023-03-08T19:18:57.034Z,28.94
2023-03-08T19:21:26.279Z,28.93
2023-03-08T19:23:54.241Z,28.78
2023-03-08T19:26:38.243Z,28.76
2023-03-08T19:29:17.786Z,29.19
2023-03-08T19:31:55.908Z,29.11
2023-03-08T19:34:28.408Z,31.12
2023-03-08T19:36:55.618Z,30.76
2023-03-08T19:39:26.612Z,30.32
2023-03-08T19:41:56.350Z,30.33
2023-03-08T19:44:23.548Z,30.05
2023-03-08T19:46:59.008Z,29.87
2023-03-08T19:49:59.180Z,29.72
2023-03-08T19:52:26.635Z,29.85
2023-03-08T19:55:00.100Z,29.98
2023-03-08T19:58:01.684Z,29.85
2023-03-08T20:04:15.728Z,29.64
2023-03-08T20:07:35.657Z,29.64
2023-03-08T20:10:37.274Z,29.36
2023-03-08T20:13:31.873Z,29.45
2023-03-08T20:16:15.750Z,29.04
2023-03-08T20:18:54.932Z,29.37
2023-03-08T20:21:29.910Z,29.17
2023-03-08T20:23:57.734Z,29.14
2023-03-08T20:26:29.104Z,29.63
2023-03-08T20:28:59.512Z,29.24
2023-03-08T20:31:30.507Z,29.70
2023-03-08T20:33:57.541Z,29.62
2023-03-08T20:36:25.689Z,29.46
2023-03-08T20:38:57.790Z,29.34
2023-03-08T20:41:30.402Z,29.62
2023-03-08T20:44:11.018Z,29.57
2023-03-08T20:46:41.345Z,29.61
2023-03-08T20:49:14.013Z,29.81
2023-03-08T20:51:44.223Z,29.67
2023-03-08T20:54:14.490Z,30.02
2023-03-08T20:56:55.918Z,29.88
2023-03-08T20:59:24.435Z,29.44
2023-03-08T21:01:56.887Z,29.66
2023-03-08T21:04:43.444Z,29.29
2023-03-08T21:07:18.459Z,29.12
2023-03-08T21:09:47.938Z,29.20
2023-03-08T21:12:18.122Z,29.57
2023-03-08T21:14:45.615Z,29.51
2023-03-08T21:17:40.434Z,29.54
2023-03-08T21:20:12.010Z,29.62
2023-03-08T21:22:55.170Z,29.48
2023-03-08T21:25:28.273Z,29.30
2023-03-08T21:28:05.865Z,29.02
2023-03-08T21:30:37.261Z,29.07
2023-03-08T21:33:08.879Z,29.24
2023-03-08T21:35:44.760Z,29.26
2023-03-08T21:38:11.941Z,29.02
2023-03-08T21:40:41.268Z,29.28
2023-03-08T21:43:09.504Z,30.17
2023-03-08T21:45:40.756Z,30.66
2023-03-08T21:48:10.594Z,30.71
2023-03-08T21:50:40.456Z,31.27
2023-03-08T21:53:07.984Z,31.45
2023-03-08T21:55:45.066Z,31.47
2023-03-08T21:58:13.975Z,31.39
2023-03-08T22:00:40.836Z,31.08
2023-03-08T22:03:07.610Z,31.41
2023-03-08T22:05:34.464Z,31.35
2023-03-08T22:08:01.896Z,30.85
2023-03-08T22:10:28.888Z,31.05
2023-03-08T22:13:05.692Z,31.15
2023-03-08T22:15:35.778Z,30.77
2023-03-08T22:18:02.727Z,30.80
2023-03-08T22:20:29.904Z,30.53
2023-03-08T22:22:56.549Z,30.56
2023-03-08T22:25:23.273Z,30.39
2023-03-08T22:27:49.990Z,30.60
